sensor_id;sensor_type;location;lat;lon;timestamp;pressure;altitude;pressure_sealevel;temperature;humidity
72428;BME280;60419;48.880;18.036;2022-07-10T00:02:09;99236.28;;;16.34;66.65
72428;BME280;60419;48.880;18.036;2022-07-10T00:04:55;99235.09;;;15.98;68.00
72428;BME280;60419;48.880;18.036;2022-07-10T00:07:40;99234.03;;;15.90;68.44
72428;BME280;60419;48.880;18.036;2022-07-10T00:10:25;99231.16;;;16.32;67.17
72428;BME280;60419;48.880;18.036;2022-07-10T00:13:11;99235.97;;;16.47;66.70
72428;BME280;60419;48.880;18.036;2022-07-10T00:15:57;99235.84;;;15.65;69.17
72428;BME280;60419;48.880;18.036;2022-07-10T00:18:42;99223.34;;;15.85;68.57
72428;BME280;60419;48.880;18.036;2022-07-10T00:21:27;99214.72;;;16.28;66.86
72428;BME280;60419;48.880;18.036;2022-07-10T00:24:13;99209.94;;;16.62;66.12
72428;BME280;60419;48.880;18.036;2022-07-10T00:26:58;99208.91;;;16.42;65.79
72428;BME280;60419;48.880;18.036;2022-07-10T00:29:44;99211.06;;;16.49;65.75
72428;BME280;60419;48.880;18.036;2022-07-10T00:32:30;99209.09;;;16.13;66.56
72428;BME280;60419;48.880;18.036;2022-07-10T00:35:15;99216.75;;;16.44;65.86
72428;BME280;60419;48.880;18.036;2022-07-10T00:38:01;99212.22;;;16.60;65.75
72428;BME280;60419;48.880;18.036;2022-07-10T00:40:46;99216.72;;;16.19;65.93
72428;BME280;60419;48.880;18.036;2022-07-10T00:43:54;99219.69;;;16.51;65.24
72428;BME280;60419;48.880;18.036;2022-07-10T00:46:40;99219.81;;;16.30;65.51
72428;BME280;60419;48.880;18.036;2022-07-10T00:49:25;99216.06;;;16.35;65.23
72428;BME280;60419;48.880;18.036;2022-07-10T00:52:12;99215.53;;;15.62;67.69
72428;BME280;60419;48.880;18.036;2022-07-10T00:54:58;99211.47;;;15.69;67.92
72428;BME280;60419;48.880;18.036;2022-07-10T00:57:43;99212.38;;;15.73;67.57
72428;BME280;60419;48.880;18.036;2022-07-10T01:00:29;99203.16;;;15.65;67.52
72428;BME280;60419;48.880;18.036;2022-07-10T01:03:15;99203.19;;;15.98;66.88
72428;BME280;60419;48.880;18.036;2022-07-10T01:06:00;99202.09;;;16.61;64.93
72428;BME280;60419;48.880;18.036;2022-07-10T01:08:46;99203.81;;;16.53;64.79
72428;BME280;60419;48.880;18.036;2022-07-10T01:11:33;99202.13;;;16.36;65.36
72428;BME280;60419;48.880;18.036;2022-07-10T01:14:19;99201.16;;;16.08;65.78
72428;BME280;60419;48.880;18.036;2022-07-10T01:17:07;99196.00;;;15.94;66.21
72428;BME280;60419;48.880;18.036;2022-07-10T01:19:52;99179.66;;;15.60;66.96
72428;BME280;60419;48.880;18.036;2022-07-10T01:22:38;99198.09;;;15.43;67.79
72428;BME280;60419;48.880;18.036;2022-07-10T01:25:24;99198.19;;;15.67;67.12
72428;BME280;60419;48.880;18.036;2022-07-10T01:28:10;99192.47;;;15.60;66.90
72428;BME280;60419;48.880;18.036;2022-07-10T01:30:55;99189.19;;;15.54;67.21
72428;BME280;60419;48.880;18.036;2022-07-10T01:33:41;99183.66;;;15.30;68.31
72428;BME280;60419;48.880;18.036;2022-07-10T01:36:28;99180.53;;;15.52;67.58
72428;BME280;60419;48.880;18.036;2022-07-10T01:39:14;99163.75;;;15.83;66.59
72428;BME280;60419;48.880;18.036;2022-07-10T01:42:00;99174.41;;;15.76;67.30
72428;BME280;60419;48.880;18.036;2022-07-10T01:44:45;99173.78;;;15.58;67.87
72428;BME280;60419;48.880;18.036;2022-07-10T01:47:31;99163.38;;;15.39;68.10
72428;BME280;60419;48.880;18.036;2022-07-10T01:50:16;99159.94;;;15.30;68.62
72428;BME280;60419;48.880;18.036;2022-07-10T01:53:02;99164.38;;;15.35;68.86
72428;BME280;60419;48.880;18.036;2022-07-10T01:55:51;99165.03;;;15.53;68.42
72428;BME280;60419;48.880;18.036;2022-07-10T01:58:36;99145.41;;;15.26;68.71
72428;BME280;60419;48.880;18.036;2022-07-10T02:01:22;99161.06;;;15.62;68.00
72428;BME280;60419;48.880;18.036;2022-07-10T02:04:07;99160.66;;;15.39;68.15
72428;BME280;60419;48.880;18.036;2022-07-10T02:07:16;99166.34;;;15.47;68.41
72428;BME280;60419;48.880;18.036;2022-07-10T02:10:02;99156.03;;;15.40;68.68
72428;BME280;60419;48.880;18.036;2022-07-10T02:12:47;99150.56;;;15.40;68.55
72428;BME280;60419;48.880;18.036;2022-07-10T02:15:33;99150.38;;;15.57;67.81
72428;BME280;60419;48.880;18.036;2022-07-10T02:18:18;99149.34;;;15.50;68.02
72428;BME280;60419;48.880;18.036;2022-07-10T02:21:04;99144.06;;;15.66;67.29
72428;BME280;60419;48.880;18.036;2022-07-10T02:23:49;99147.59;;;15.33;68.37
72428;BME280;60419;48.880;18.036;2022-07-10T02:26:34;99141.09;;;15.58;67.73
72428;BME280;60419;48.880;18.036;2022-07-10T02:29:20;99136.78;;;15.57;67.51
72428;BME280;60419;48.880;18.036;2022-07-10T02:32:05;99139.84;;;15.56;68.05
72428;BME280;60419;48.880;18.036;2022-07-10T02:34:51;99126.31;;;15.47;67.59
72428;BME280;60419;48.880;18.036;2022-07-10T02:37:37;99140.84;;;15.84;66.56
72428;BME280;60419;48.880;18.036;2022-07-10T02:40:22;99127.72;;;16.11;66.04
72428;BME280;60419;48.880;18.036;2022-07-10T02:43:07;99134.06;;;16.15;65.86
72428;BME280;60419;48.880;18.036;2022-07-10T02:45:53;99124.06;;;16.19;65.75
72428;BME280;60419;48.880;18.036;2022-07-10T02:48:38;99124.75;;;16.41;65.02
72428;BME280;60419;48.880;18.036;2022-07-10T02:51:23;99120.22;;;16.08;65.81
72428;BME280;60419;48.880;18.036;2022-07-10T02:54:09;99116.47;;;16.25;65.47
72428;BME280;60419;48.880;18.036;2022-07-10T02:56:54;99121.56;;;16.51;64.49
72428;BME280;60419;48.880;18.036;2022-07-10T02:59:40;99131.34;;;16.52;64.87
72428;BME280;60419;48.880;18.036;2022-07-10T03:02:25;99129.50;;;16.07;65.71
72428;BME280;60419;48.880;18.036;2022-07-10T03:05:11;99130.63;;;15.81;66.64
72428;BME280;60419;48.880;18.036;2022-07-10T03:07:57;99135.56;;;15.67;67.16
72428;BME280;60419;48.880;18.036;2022-07-10T03:10:43;99133.63;;;15.68;67.37
72428;BME280;60419;48.880;18.036;2022-07-10T03:13:28;99128.28;;;15.59;67.83
72428;BME280;60419;48.880;18.036;2022-07-10T03:16:13;99124.41;;;15.48;68.06
72428;BME280;60419;48.880;18.036;2022-07-10T03:18:59;99133.72;;;15.26;69.01
72428;BME280;60419;48.880;18.036;2022-07-10T03:21:44;99133.81;;;14.96;69.61
72428;BME280;60419;48.880;18.036;2022-07-10T03:24:31;99132.66;;;15.18;69.34
72428;BME280;60419;48.880;18.036;2022-07-10T03:27:16;99134.31;;;15.31;68.99
72428;BME280;60419;48.880;18.036;2022-07-10T03:30:02;99131.53;;;15.86;67.37
72428;BME280;60419;48.880;18.036;2022-07-10T03:32:48;99133.19;;;15.32;68.51
72428;BME280;60419;48.880;18.036;2022-07-10T03:35:34;99109.59;;;15.70;67.07
72428;BME280;60419;48.880;18.036;2022-07-10T03:38:20;99120.13;;;15.59;67.64
72428;BME280;60419;48.880;18.036;2022-07-10T03:41:05;99115.34;;;15.68;67.26
72428;BME280;60419;48.880;18.036;2022-07-10T03:43:51;99115.53;;;15.96;66.31
72428;BME280;60419;48.880;18.036;2022-07-10T03:46:36;99107.94;;;16.14;66.12
72428;BME280;60419;48.880;18.036;2022-07-10T03:49:21;99108.31;;;15.67;68.14
72428;BME280;60419;48.880;18.036;2022-07-10T03:52:07;99097.97;;;16.06;67.30
72428;BME280;60419;48.880;18.036;2022-07-10T03:54:54;99094.44;;;16.18;67.82
72428;BME280;60419;48.880;18.036;2022-07-10T03:57:39;99093.94;;;16.53;65.38
72428;BME280;60419;48.880;18.036;2022-07-10T04:00:41;99084.97;;;16.52;65.42
72428;BME280;60419;48.880;18.036;2022-07-10T04:03:27;99101.25;;;16.12;66.01
72428;BME280;60419;48.880;18.036;2022-07-10T04:06:12;99085.22;;;16.22;66.35
72428;BME280;60419;48.880;18.036;2022-07-10T04:08:58;99085.81;;;16.16;67.17
72428;BME280;60419;48.880;18.036;2022-07-10T04:11:43;99095.88;;;16.52;66.58
72428;BME280;60419;48.880;18.036;2022-07-10T04:14:29;99089.97;;;16.62;66.35
72428;BME280;60419;48.880;18.036;2022-07-10T04:17:14;99076.56;;;16.57;66.62
72428;BME280;60419;48.880;18.036;2022-07-10T04:20:00;99086.09;;;17.04;65.03
72428;BME280;60419;48.880;18.036;2022-07-10T04:22:46;99077.44;;;16.86;64.97
72428;BME280;60419;48.880;18.036;2022-07-10T04:25:32;99092.69;;;17.03;64.92
72428;BME280;60419;48.880;18.036;2022-07-10T04:28:17;99091.91;;;17.30;64.21
72428;BME280;60419;48.880;18.036;2022-07-10T04:31:02;99086.44;;;17.30;62.61
72428;BME280;60419;48.880;18.036;2022-07-10T04:33:48;99094.97;;;16.48;66.01
72428;BME280;60419;48.880;18.036;2022-07-10T04:36:33;99102.50;;;15.90;67.33
72428;BME280;60419;48.880;18.036;2022-07-10T04:39:18;99115.41;;;15.80;68.19
72428;BME280;60419;48.880;18.036;2022-07-10T04:42:05;99122.00;;;15.79;67.96
72428;BME280;60419;48.880;18.036;2022-07-10T04:44:51;99128.53;;;15.33;68.86
72428;BME280;60419;48.880;18.036;2022-07-10T04:47:36;99119.41;;;15.16;69.60
72428;BME280;60419;48.880;18.036;2022-07-10T04:50:21;99112.41;;;15.61;68.07
72428;BME280;60419;48.880;18.036;2022-07-10T04:53:07;99111.53;;;15.69;68.23
72428;BME280;60419;48.880;18.036;2022-07-10T04:55:52;99118.75;;;15.19;69.37
72428;BME280;60419;48.880;18.036;2022-07-10T04:58:38;99108.72;;;15.45;68.12
72428;BME280;60419;48.880;18.036;2022-07-10T05:01:23;99108.94;;;15.06;68.92
72428;BME280;60419;48.880;18.036;2022-07-10T05:04:09;99103.59;;;15.31;68.38
72428;BME280;60419;48.880;18.036;2022-07-10T05:06:54;99104.88;;;15.46;67.65
72428;BME280;60419;48.880;18.036;2022-07-10T05:09:40;99103.59;;;15.76;66.91
72428;BME280;60419;48.880;18.036;2022-07-10T05:12:26;99091.50;;;15.98;65.71
72428;BME280;60419;48.880;18.036;2022-07-10T05:15:11;99088.84;;;16.39;64.41
72428;BME280;60419;48.880;18.036;2022-07-10T05:17:56;99102.00;;;16.61;64.22
72428;BME280;60419;48.880;18.036;2022-07-10T05:20:42;99106.25;;;16.34;64.45
72428;BME280;60419;48.880;18.036;2022-07-10T05:23:28;99106.41;;;16.78;63.63
72428;BME280;60419;48.880;18.036;2022-07-10T05:26:14;99107.56;;;16.65;63.40
72428;BME280;60419;48.880;18.036;2022-07-10T05:28:59;99101.53;;;17.12;62.08
72428;BME280;60419;48.880;18.036;2022-07-10T05:31:45;99098.06;;;16.99;62.51
72428;BME280;60419;48.880;18.036;2022-07-10T05:34:30;99094.59;;;17.14;61.90
72428;BME280;60419;48.880;18.036;2022-07-10T05:37:15;99096.81;;;16.32;63.36
72428;BME280;60419;48.880;18.036;2022-07-10T05:40:01;99091.94;;;16.37;63.46
72428;BME280;60419;48.880;18.036;2022-07-10T05:42:46;99095.00;;;16.11;64.22
72428;BME280;60419;48.880;18.036;2022-07-10T05:45:31;99095.47;;;16.13;64.76
72428;BME280;60419;48.880;18.036;2022-07-10T05:48:17;99098.84;;;16.22;64.40
72428;BME280;60419;48.880;18.036;2022-07-10T05:51:02;99103.41;;;16.06;64.43
72428;BME280;60419;48.880;18.036;2022-07-10T05:53:48;99085.94;;;15.95;65.41
72428;BME280;60419;48.880;18.036;2022-07-10T05:56:33;99088.03;;;15.65;66.06
72428;BME280;60419;48.880;18.036;2022-07-10T05:59:19;99087.84;;;15.94;65.29
72428;BME280;60419;48.880;18.036;2022-07-10T06:02:04;99091.56;;;16.39;64.26
72428;BME280;60419;48.880;18.036;2022-07-10T06:04:50;99088.09;;;16.14;64.57
72428;BME280;60419;48.880;18.036;2022-07-10T06:07:35;99068.28;;;16.41;63.29
72428;BME280;60419;48.880;18.036;2022-07-10T06:10:21;99085.47;;;16.17;64.26
72428;BME280;60419;48.880;18.036;2022-07-10T06:13:06;99079.78;;;16.22;64.35
72428;BME280;60419;48.880;18.036;2022-07-10T06:15:52;99074.00;;;15.99;65.28
72428;BME280;60419;48.880;18.036;2022-07-10T06:18:37;99090.94;;;16.82;63.05
72428;BME280;60419;48.880;18.036;2022-07-10T06:21:23;99085.69;;;16.24;62.70
72428;BME280;60419;48.880;18.036;2022-07-10T06:24:08;99075.13;;;16.35;63.18
72428;BME280;60419;48.880;18.036;2022-07-10T06:26:53;99082.88;;;16.09;64.52
72428;BME280;60419;48.880;18.036;2022-07-10T06:29:39;99088.44;;;16.00;63.75
72428;BME280;60419;48.880;18.036;2022-07-10T06:32:25;99082.97;;;16.12;63.91
72428;BME280;60419;48.880;18.036;2022-07-10T06:35:11;99066.28;;;16.14;63.71
72428;BME280;60419;48.880;18.036;2022-07-10T06:37:56;99077.19;;;16.26;63.54
72428;BME280;60419;48.880;18.036;2022-07-10T06:40:42;99076.59;;;16.20;63.10
72428;BME280;60419;48.880;18.036;2022-07-10T06:43:28;99057.56;;;16.08;62.55
72428;BME280;60419;48.880;18.036;2022-07-10T06:46:13;99074.97;;;16.44;61.85
72428;BME280;60419;48.880;18.036;2022-07-10T06:48:59;99078.31;;;16.25;63.03
72428;BME280;60419;48.880;18.036;2022-07-10T06:51:45;99067.00;;;16.63;60.75
72428;BME280;60419;48.880;18.036;2022-07-10T06:54:30;99074.38;;;16.63;60.41
72428;BME280;60419;48.880;18.036;2022-07-10T06:57:16;99089.13;;;16.74;59.96
72428;BME280;60419;48.880;18.036;2022-07-10T07:00:03;99085.50;;;17.10;58.60
72428;BME280;60419;48.880;18.036;2022-07-10T07:02:50;99075.91;;;17.17;59.41
72428;BME280;60419;48.880;18.036;2022-07-10T07:05:35;99073.59;;;17.47;59.30
72428;BME280;60419;48.880;18.036;2022-07-10T07:08:21;99078.31;;;17.18;59.17
72428;BME280;60419;48.880;18.036;2022-07-10T07:11:07;99056.28;;;16.83;60.91
72428;BME280;60419;48.880;18.036;2022-07-10T07:13:52;99080.50;;;16.84;61.77
72428;BME280;60419;48.880;18.036;2022-07-10T07:16:37;99082.53;;;16.87;60.83
72428;BME280;60419;48.880;18.036;2022-07-10T07:19:25;99063.34;;;17.12;59.80
72428;BME280;60419;48.880;18.036;2022-07-10T07:22:16;99086.28;;;17.11;60.60
72428;BME280;60419;48.880;18.036;2022-07-10T07:25:20;99094.22;;;16.88;60.66
72428;BME280;60419;48.880;18.036;2022-07-10T07:28:06;99080.19;;;16.61;61.14
72428;BME280;60419;48.880;18.036;2022-07-10T07:30:51;99086.53;;;17.34;60.26
72428;BME280;60419;48.880;18.036;2022-07-10T07:33:37;99079.38;;;17.29;59.33
72428;BME280;60419;48.880;18.036;2022-07-10T07:36:23;99084.81;;;17.57;59.94
72428;BME280;60419;48.880;18.036;2022-07-10T07:39:08;99081.38;;;18.95;54.71
72428;BME280;60419;48.880;18.036;2022-07-10T07:41:54;99063.72;;;18.37;54.09
72428;BME280;60419;48.880;18.036;2022-07-10T07:44:39;99067.56;;;17.69;55.42
72428;BME280;60419;48.880;18.036;2022-07-10T07:47:25;99071.00;;;17.98;54.79
72428;BME280;60419;48.880;18.036;2022-07-10T07:50:14;99059.00;;;17.87;55.62
72428;BME280;60419;48.880;18.036;2022-07-10T07:53:02;99052.47;;;18.07;54.96
72428;BME280;60419;48.880;18.036;2022-07-10T07:55:47;99055.78;;;18.32;54.06
72428;BME280;60419;48.880;18.036;2022-07-10T07:58:33;99056.19;;;18.50;53.34
72428;BME280;60419;48.880;18.036;2022-07-10T08:01:18;99037.59;;;18.59;51.33
72428;BME280;60419;48.880;18.036;2022-07-10T08:04:05;99043.97;;;18.83;49.43
72428;BME280;60419;48.880;18.036;2022-07-10T08:06:51;99056.28;;;18.73;48.33
72428;BME280;60419;48.880;18.036;2022-07-10T08:09:37;99026.66;;;18.40;48.97
72428;BME280;60419;48.880;18.036;2022-07-10T08:12:22;99051.56;;;18.54;48.96
72428;BME280;60419;48.880;18.036;2022-07-10T08:15:10;99065.84;;;18.28;49.72
72428;BME280;60419;48.880;18.036;2022-07-10T08:17:57;99048.72;;;18.31;48.80
72428;BME280;60419;48.880;18.036;2022-07-10T08:20:43;99053.66;;;18.26;49.10
72428;BME280;60419;48.880;18.036;2022-07-10T08:23:28;99062.84;;;18.88;50.52
72428;BME280;60419;48.880;18.036;2022-07-10T08:26:13;99058.00;;;19.01;49.86
72428;BME280;60419;48.880;18.036;2022-07-10T08:28:59;99056.88;;;18.82;50.91
72428;BME280;60419;48.880;18.036;2022-07-10T08:31:44;99059.19;;;18.64;51.36
72428;BME280;60419;48.880;18.036;2022-07-10T08:34:30;99058.81;;;18.46;51.81
72428;BME280;60419;48.880;18.036;2022-07-10T08:37:15;99065.75;;;18.60;51.07
72428;BME280;60419;48.880;18.036;2022-07-10T08:40:01;99071.63;;;18.42;51.29
72428;BME280;60419;48.880;18.036;2022-07-10T08:42:46;99052.47;;;17.59;53.54
72428;BME280;60419;48.880;18.036;2022-07-10T08:45:32;99061.50;;;17.76;52.50
72428;BME280;60419;48.880;18.036;2022-07-10T08:48:22;99056.06;;;18.27;52.51
72428;BME280;60419;48.880;18.036;2022-07-10T08:51:11;99072.94;;;18.49;51.53
72428;BME280;60419;48.880;18.036;2022-07-10T08:54:01;99061.59;;;18.31;52.45
72428;BME280;60419;48.880;18.036;2022-07-10T08:56:47;99065.06;;;18.28;52.33
72428;BME280;60419;48.880;18.036;2022-07-10T08:59:32;99057.56;;;18.24;52.46
72428;BME280;60419;48.880;18.036;2022-07-10T09:02:18;99059.44;;;18.05;52.12
72428;BME280;60419;48.880;18.036;2022-07-10T09:05:04;99063.56;;;18.14;51.65
72428;BME280;60419;48.880;18.036;2022-07-10T09:07:55;99062.47;;;18.35;50.49
72428;BME280;60419;48.880;18.036;2022-07-10T09:10:41;99066.44;;;18.37;46.16
72428;BME280;60419;48.880;18.036;2022-07-10T09:13:26;99051.13;;;18.17;47.26
72428;BME280;60419;48.880;18.036;2022-07-10T09:16:21;99048.25;;;18.45;47.75
72428;BME280;60419;48.880;18.036;2022-07-10T09:19:22;99050.28;;;19.49;47.90
72428;BME280;60419;48.880;18.036;2022-07-10T09:22:09;99042.34;;;20.39;47.33
72428;BME280;60419;48.880;18.036;2022-07-10T09:24:55;99057.91;;;19.59;44.25
72428;BME280;60419;48.880;18.036;2022-07-10T09:27:53;99071.00;;;19.92;42.18
72428;BME280;60419;48.880;18.036;2022-07-10T09:30:39;99057.56;;;19.84;44.37
72428;BME280;60419;48.880;18.036;2022-07-10T09:33:29;99029.56;;;20.24;43.36
72428;BME280;60419;48.880;18.036;2022-07-10T09:36:15;99043.97;;;20.74;45.20
72428;BME280;60419;48.880;18.036;2022-07-10T09:39:01;99030.81;;;20.57;39.99
72428;BME280;60419;48.880;18.036;2022-07-10T09:41:47;99033.38;;;19.66;42.24
72428;BME280;60419;48.880;18.036;2022-07-10T09:44:32;99043.59;;;19.23;42.71
72428;BME280;60419;48.880;18.036;2022-07-10T09:47:23;99023.25;;;18.82;42.71
72428;BME280;60419;48.880;18.036;2022-07-10T09:50:32;99011.22;;;19.29;42.11
72428;BME280;60419;48.880;18.036;2022-07-10T09:53:18;99033.66;;;19.58;42.85
72428;BME280;60419;48.880;18.036;2022-07-10T09:56:06;99031.06;;;18.83;42.71
72428;BME280;60419;48.880;18.036;2022-07-10T09:58:55;99046.34;;;19.04;43.41
72428;BME280;60419;48.880;18.036;2022-07-10T10:01:45;99037.97;;;18.97;44.00
72428;BME280;60419;48.880;18.036;2022-07-10T10:04:33;99047.22;;;19.08;44.42
72428;BME280;60419;48.880;18.036;2022-07-10T10:07:19;99049.88;;;18.50;44.26
72428;BME280;60419;48.880;18.036;2022-07-10T10:10:06;99014.44;;;18.92;43.63
72428;BME280;60419;48.880;18.036;2022-07-10T10:12:54;99036.06;;;18.97;44.28
72428;BME280;60419;48.880;18.036;2022-07-10T10:15:45;99042.44;;;19.47;41.83
72428;BME280;60419;48.880;18.036;2022-07-10T10:18:32;99034.09;;;18.98;41.31
72428;BME280;60419;48.880;18.036;2022-07-10T10:21:18;99024.38;;;19.00;41.70
72428;BME280;60419;48.880;18.036;2022-07-10T10:24:06;99029.53;;;19.48;42.07
72428;BME280;60419;48.880;18.036;2022-07-10T10:26:52;99076.25;;;19.13;41.23
72428;BME280;60419;48.880;18.036;2022-07-10T10:29:38;99030.28;;;19.25;39.69
72428;BME280;60419;48.880;18.036;2022-07-10T10:32:24;99029.16;;;18.84;38.87
72428;BME280;60419;48.880;18.036;2022-07-10T10:35:09;99020.22;;;18.87;39.26
72428;BME280;60419;48.880;18.036;2022-07-10T10:37:55;99007.38;;;19.33;38.65
72428;BME280;60419;48.880;18.036;2022-07-10T10:40:41;99004.09;;;19.24;39.40
72428;BME280;60419;48.880;18.036;2022-07-10T10:43:26;99008.16;;;18.92;40.52
72428;BME280;60419;48.880;18.036;2022-07-10T10:46:24;98983.06;;;19.09;39.73
72428;BME280;60419;48.880;18.036;2022-07-10T10:49:10;99012.34;;;19.05;40.26
72428;BME280;60419;48.880;18.036;2022-07-10T10:52:09;98989.81;;;18.92;39.59
72428;BME280;60419;48.880;18.036;2022-07-10T10:57:43;98992.53;;;19.35;38.13
72428;BME280;60419;48.880;18.036;2022-07-10T11:00:33;98986.06;;;19.69;38.52
72428;BME280;60419;48.880;18.036;2022-07-10T11:03:28;98977.97;;;19.30;38.82
72428;BME280;60419;48.880;18.036;2022-07-10T11:06:13;98997.13;;;19.30;38.37
72428;BME280;60419;48.880;18.036;2022-07-10T11:08:59;98983.41;;;19.27;36.23
72428;BME280;60419;48.880;18.036;2022-07-10T11:12:06;98984.13;;;19.47;36.40
72428;BME280;60419;48.880;18.036;2022-07-10T11:14:52;98980.50;;;19.62;36.03
72428;BME280;60419;48.880;18.036;2022-07-10T11:17:39;98965.88;;;20.08;35.65
72428;BME280;60419;48.880;18.036;2022-07-10T11:20:25;98973.41;;;19.61;36.91
72428;BME280;60419;48.880;18.036;2022-07-10T11:26:35;98972.63;;;19.38;36.26
72428;BME280;60419;48.880;18.036;2022-07-10T11:29:22;98966.31;;;19.33;37.68
72428;BME280;60419;48.880;18.036;2022-07-10T11:32:08;98971.16;;;19.44;38.09
72428;BME280;60419;48.880;18.036;2022-07-10T11:34:54;98965.44;;;19.29;38.16
72428;BME280;60419;48.880;18.036;2022-07-10T11:37:52;98985.47;;;19.10;38.74
72428;BME280;60419;48.880;18.036;2022-07-10T11:40:38;98974.25;;;19.42;38.12
72428;BME280;60419;48.880;18.036;2022-07-10T11:43:23;98954.56;;;19.56;37.98
72428;BME280;60419;48.880;18.036;2022-07-10T11:46:11;98966.44;;;18.75;38.97
72428;BME280;60419;48.880;18.036;2022-07-10T11:48:57;98954.63;;;19.14;38.67
72428;BME280;60419;48.880;18.036;2022-07-10T11:51:43;98964.59;;;19.02;38.28
72428;BME280;60419;48.880;18.036;2022-07-10T11:54:30;98971.56;;;19.23;37.95
72428;BME280;60419;48.880;18.036;2022-07-10T11:57:15;98961.91;;;19.52;36.99
72428;BME280;60419;48.880;18.036;2022-07-10T12:00:00;98989.81;;;19.15;37.02
72428;BME280;60419;48.880;18.036;2022-07-10T12:02:46;98962.16;;;19.43;36.64
72428;BME280;60419;48.880;18.036;2022-07-10T12:05:36;98968.97;;;19.76;36.66
72428;BME280;60419;48.880;18.036;2022-07-10T12:08:22;98973.22;;;19.50;36.67
72428;BME280;60419;48.880;18.036;2022-07-10T12:11:17;98994.47;;;19.11;36.86
72428;BME280;60419;48.880;18.036;2022-07-10T12:17:10;98963.78;;;19.25;37.17
72428;BME280;60419;48.880;18.036;2022-07-10T12:19:56;98975.97;;;19.73;36.61
72428;BME280;60419;48.880;18.036;2022-07-10T12:22:42;98979.22;;;19.83;35.74
72428;BME280;60419;48.880;18.036;2022-07-10T12:25:28;98985.69;;;19.48;35.66
72428;BME280;60419;48.880;18.036;2022-07-10T12:28:14;98971.97;;;19.67;35.44
72428;BME280;60419;48.880;18.036;2022-07-10T12:30:59;98987.66;;;19.97;34.57
72428;BME280;60419;48.880;18.036;2022-07-10T12:33:50;98958.63;;;19.66;34.61
72428;BME280;60419;48.880;18.036;2022-07-10T12:36:46;98995.09;;;20.23;34.67
72428;BME280;60419;48.880;18.036;2022-07-10T12:39:35;99006.31;;;19.88;35.20
72428;BME280;60419;48.880;18.036;2022-07-10T12:42:25;98994.69;;;19.68;35.94
72428;BME280;60419;48.880;18.036;2022-07-10T12:45:12;99011.09;;;19.91;35.25
72428;BME280;60419;48.880;18.036;2022-07-10T12:47:58;99004.38;;;19.88;35.22
72428;BME280;60419;48.880;18.036;2022-07-10T12:50:43;98995.25;;;19.81;34.83
72428;BME280;60419;48.880;18.036;2022-07-10T12:53:29;99017.59;;;19.37;38.20
72428;BME280;60419;48.880;18.036;2022-07-10T12:59:17;99021.59;;;18.77;42.29
72428;BME280;60419;48.880;18.036;2022-07-10T13:02:17;99028.16;;;18.37;45.01
72428;BME280;60419;48.880;18.036;2022-07-10T13:05:02;99033.19;;;18.55;43.98
72428;BME280;60419;48.880;18.036;2022-07-10T13:07:48;99051.31;;;18.08;45.02
72428;BME280;60419;48.880;18.036;2022-07-10T13:10:34;99044.28;;;17.59;45.77
72428;BME280;60419;48.880;18.036;2022-07-10T13:13:21;99055.75;;;17.81;45.56
72428;BME280;60419;48.880;18.036;2022-07-10T13:16:08;99050.38;;;17.85;42.98
72428;BME280;60419;48.880;18.036;2022-07-10T13:18:53;99059.66;;;17.80;42.73
72428;BME280;60419;48.880;18.036;2022-07-10T13:21:39;99077.50;;;17.62;41.17
72428;BME280;60419;48.880;18.036;2022-07-10T13:24:24;99083.16;;;17.25;41.23
72428;BME280;60419;48.880;18.036;2022-07-10T13:27:11;99068.75;;;17.40;41.32
72428;BME280;60419;48.880;18.036;2022-07-10T13:29:57;99073.56;;;17.75;40.63
72428;BME280;60419;48.880;18.036;2022-07-10T13:32:42;99055.19;;;17.44;41.20
72428;BME280;60419;48.880;18.036;2022-07-10T13:35:29;99078.38;;;17.66;41.23
72428;BME280;60419;48.880;18.036;2022-07-10T13:38:15;99099.56;;;17.85;41.13
72428;BME280;60419;48.880;18.036;2022-07-10T13:41:02;99064.22;;;17.76;41.06
72428;BME280;60419;48.880;18.036;2022-07-10T13:43:48;99064.91;;;17.73;41.29
72428;BME280;60419;48.880;18.036;2022-07-10T13:46:33;99069.56;;;17.72;41.16
72428;BME280;60419;48.880;18.036;2022-07-10T13:49:19;99074.59;;;18.02;40.41
72428;BME280;60419;48.880;18.036;2022-07-10T13:52:04;99084.81;;;18.05;39.65
72428;BME280;60419;48.880;18.036;2022-07-10T13:54:50;99093.03;;;18.05;38.85
72428;BME280;60419;48.880;18.036;2022-07-10T13:57:35;99075.81;;;17.73;39.17
72428;BME280;60419;48.880;18.036;2022-07-10T14:00:21;99072.91;;;17.66;38.96
72428;BME280;60419;48.880;18.036;2022-07-10T14:03:06;99086.53;;;17.78;39.22
72428;BME280;60419;48.880;18.036;2022-07-10T14:05:52;99081.31;;;17.89;39.51
72428;BME280;60419;48.880;18.036;2022-07-10T14:08:38;99078.06;;;18.50;38.59
72428;BME280;60419;48.880;18.036;2022-07-10T14:11:23;99081.19;;;18.33;38.98
72428;BME280;60419;48.880;18.036;2022-07-10T14:14:09;99091.09;;;18.21;38.90
72428;BME280;60419;48.880;18.036;2022-07-10T14:16:56;99088.50;;;18.29;38.29
72428;BME280;60419;48.880;18.036;2022-07-10T14:19:41;99088.47;;;18.44;38.31
72428;BME280;60419;48.880;18.036;2022-07-10T14:22:26;99070.97;;;18.49;38.01
72428;BME280;60419;48.880;18.036;2022-07-10T14:25:13;99074.09;;;18.32;38.53
72428;BME280;60419;48.880;18.036;2022-07-10T14:27:58;99055.47;;;18.02;38.43
72428;BME280;60419;48.880;18.036;2022-07-10T14:30:44;99090.28;;;18.21;39.89
72428;BME280;60419;48.880;18.036;2022-07-10T14:33:30;99078.78;;;17.36;44.88
72428;BME280;60419;48.880;18.036;2022-07-10T14:36:16;99089.88;;;16.99;46.38
72428;BME280;60419;48.880;18.036;2022-07-10T14:39:02;99085.25;;;16.87;46.19
72428;BME280;60419;48.880;18.036;2022-07-10T14:41:47;99100.31;;;17.09;45.98
72428;BME280;60419;48.880;18.036;2022-07-10T14:44:33;99096.66;;;17.05;45.51